createdAt,value
2023-05-01T00:02:19.663Z,6.70
2023-05-01T00:05:10.828Z,8.10
2023-05-01T00:08:00.337Z,7.30
2023-05-01T00:13:38.153Z,6.80
2023-05-01T00:16:27.125Z,7.30
2023-05-01T00:19:18.015Z,6.30
2023-05-01T00:22:07.402Z,7.70
2023-05-01T00:24:49.779Z,8.80
2023-05-01T00:27:38.919Z,6.80
2023-05-01T00:30:28.383Z,6.50
2023-05-01T00:33:20.634Z,9.90
2023-05-01T00:36:10.067Z,7.80
2023-05-01T00:39:00.961Z,7.50
2023-05-01T00:41:50.265Z,4.30
2023-05-01T00:44:39.430Z,7.00
2023-05-01T00:47:28.518Z,7.30
2023-05-01T00:50:19.265Z,4.30
2023-05-01T00:53:08.163Z,5.90
2023-05-01T00:55:58.172Z,8.00
2023-05-01T00:58:52.753Z,4.10
2023-05-01T01:01:42.169Z,3.80
2023-05-01T01:04:32.967Z,6.40
2023-05-01T01:07:33.378Z,8.40
2023-05-01T01:10:35.279Z,10.60
2023-05-01T01:13:32.352Z,8.60
2023-05-01T01:16:45.346Z,4.40
2023-05-01T01:20:10.405Z,6.00
2023-05-01T01:23:27.025Z,5.90
2023-05-01T01:26:31.598Z,7.60
2023-05-01T01:29:44.368Z,7.70
2023-05-01T01:33:04.128Z,7.40
2023-05-01T01:35:57.720Z,6.90
2023-05-01T01:38:54.220Z,6.10
2023-05-01T01:41:49.990Z,5.70
2023-05-01T01:44:42.119Z,6.80
2023-05-01T01:47:33.803Z,9.30
2023-05-01T01:50:26.764Z,7.30
2023-05-01T01:53:18.520Z,5.10
2023-05-01T01:56:09.503Z,3.30
2023-05-01T01:59:01.224Z,4.00
2023-05-01T02:01:34.995Z,5.40
2023-05-01T02:04:27.992Z,7.30
2023-05-01T02:07:19.712Z,10.30
2023-05-01T02:10:13.398Z,9.00
2023-05-01T02:13:03.199Z,10.90
2023-05-01T02:15:55.536Z,7.70
2023-05-01T02:18:47.273Z,7.30
2023-05-01T02:21:31.476Z,6.80
2023-05-01T02:24:23.489Z,9.30
2023-05-01T02:27:16.596Z,8.00
2023-05-01T02:30:09.581Z,9.20
2023-05-01T02:32:58.748Z,8.30
2023-05-01T02:35:48.997Z,12.00
2023-05-01T02:38:38.209Z,11.40
2023-05-01T02:41:28.158Z,10.10
2023-05-01T02:44:19.006Z,9.30
2023-05-01T02:47:12.419Z,8.90
2023-05-01T02:50:03.069Z,6.80
2023-05-01T02:52:54.184Z,5.60
2023-05-01T02:55:42.122Z,8.30
2023-05-01T02:58:32.717Z,8.30
2023-05-01T03:01:22.434Z,8.10
2023-05-01T03:04:11.442Z,9.20
2023-05-01T03:09:48.680Z,12.80
2023-05-01T03:12:37.649Z,9.30
2023-05-01T03:15:26.984Z,10.80
2023-05-01T03:18:16.142Z,9.80
2023-05-01T03:21:05.606Z,7.50
2023-05-01T03:23:54.934Z,12.20
2023-05-01T03:29:33.513Z,8.20
2023-05-01T03:32:23.083Z,9.40
2023-05-01T03:35:12.403Z,7.20
2023-05-01T03:38:01.858Z,9.60
2023-05-01T03:40:57.233Z,8.00
2023-05-01T03:43:44.786Z,6.80
2023-05-01T03:46:34.004Z,8.80
2023-05-01T03:49:23.095Z,7.40
2023-05-01T03:55:01.547Z,8.90
2023-05-01T03:58:00.136Z,8.00
2023-05-01T04:00:50.709Z,13.60
2023-05-01T04:03:40.299Z,11.00
2023-05-01T04:06:30.259Z,11.70
2023-05-01T04:09:19.343Z,10.20
2023-05-01T04:14:57.063Z,9.40
2023-05-01T04:17:48.019Z,9.80
2023-05-01T04:20:36.880Z,9.90
2023-05-01T04:26:15.833Z,10.80
2023-05-01T04:29:05.233Z,7.80
2023-05-01T04:31:54.298Z,11.80
2023-05-01T04:34:43.842Z,11.00
2023-05-01T04:37:36.251Z,13.80
2023-05-01T04:40:28.290Z,11.20
2023-05-01T04:43:17.044Z,13.10
2023-05-01T04:46:06.472Z,9.90
2023-05-01T04:48:55.450Z,13.50
2023-05-01T04:51:45.371Z,9.70
2023-05-01T04:54:34.471Z,12.10
2023-05-01T04:57:24.013Z,9.00
2023-05-01T05:00:15.638Z,9.90
2023-05-01T05:03:05.003Z,10.60
2023-05-01T05:05:56.674Z,7.80
2023-05-01T05:08:46.132Z,6.20
2023-05-01T05:11:38.659Z,8.60
2023-05-01T05:14:28.161Z,6.90
2023-05-01T05:17:17.098Z,8.50
2023-05-01T05:20:09.549Z,8.10
2023-05-01T05:22:58.378Z,6.90
2023-05-01T05:25:47.438Z,6.20
2023-05-01T05:28:36.962Z,8.50
2023-05-01T05:31:29.619Z,7.70
2023-05-01T05:34:19.498Z,6.50
2023-05-01T05:37:08.615Z,7.30
2023-05-01T05:39:58.053Z,6.20
2023-05-01T05:42:48.225Z,8.90
2023-05-01T05:45:37.393Z,8.60
2023-05-01T05:48:29.018Z,5.40
2023-05-01T05:50:58.777Z,7.10
2023-05-01T05:53:47.874Z,8.80
2023-05-01T05:56:37.224Z,5.90
2023-05-01T05:59:26.927Z,8.80
2023-05-01T06:02:15.824Z,6.80
2023-05-01T06:05:06.121Z,6.30
2023-05-01T06:07:55.491Z,4.20
2023-05-01T06:10:45.811Z,5.90
2023-05-01T06:13:35.381Z,6.70
2023-05-01T06:16:26.019Z,7.00
2023-05-01T06:19:15.436Z,5.30
2023-05-01T06:22:06.619Z,3.80
2023-05-01T06:24:56.189Z,5.70
2023-05-01T06:27:46.246Z,5.30
2023-05-01T06:30:56.323Z,7.20
2023-05-01T06:33:45.878Z,6.40
2023-05-01T06:36:41.324Z,4.10
2023-05-01T06:42:18.181Z,2.80
2023-05-01T06:47:56.811Z,5.10
2023-05-01T06:50:46.024Z,5.00
2023-05-01T06:56:23.461Z,4.40
2023-05-01T06:59:14.097Z,4.70
2023-05-01T07:02:03.352Z,4.30
2023-05-01T07:04:54.588Z,2.90
2023-05-01T07:07:50.513Z,6.60
2023-05-01T07:10:49.019Z,3.90
2023-05-01T07:13:38.274Z,4.10
2023-05-01T07:16:27.708Z,5.20
2023-05-01T07:19:17.267Z,4.10
2023-05-01T07:22:07.394Z,3.20
2023-05-01T07:24:56.894Z,7.00
2023-05-01T07:27:46.033Z,5.20
2023-05-01T07:30:30.668Z,5.50
2023-05-01T07:33:20.250Z,4.50
2023-05-01T07:36:09.855Z,3.40
2023-05-01T07:38:58.949Z,4.10
2023-05-01T07:41:48.487Z,3.30
2023-05-01T07:44:38.570Z,4.90
2023-05-01T07:47:29.582Z,7.30
2023-05-01T07:50:18.888Z,3.70
2023-05-01T07:53:08.884Z,5.20
2023-05-01T07:56:08.178Z,3.20
2023-05-01T07:58:57.552Z,4.50
2023-05-01T08:01:47.365Z,4.40
2023-05-01T08:04:37.128Z,3.90
2023-05-01T08:07:18.742Z,4.00
2023-05-01T08:10:09.825Z,5.10
2023-05-01T08:12:58.864Z,3.70
2023-05-01T08:15:48.872Z,4.20
2023-05-01T08:18:38.691Z,5.40
2023-05-01T08:21:29.120Z,3.80
2023-05-01T08:24:18.224Z,4.60
2023-05-01T08:27:08.808Z,5.70
2023-05-01T08:29:57.915Z,4.50
2023-05-01T08:32:48.204Z,4.30
2023-05-01T08:35:37.401Z,4.00
2023-05-01T08:38:29.026Z,6.00
2023-05-01T08:41:21.863Z,3.60
2023-05-01T08:44:15.909Z,3.80
2023-05-01T08:47:12.387Z,3.70
2023-05-01T08:50:03.437Z,5.50
2023-05-01T08:52:54.137Z,5.00
2023-05-01T08:55:46.773Z,4.20
2023-05-01T08:58:36.908Z,4.60
2023-05-01T09:01:29.140Z,4.30
2023-05-01T09:04:18.653Z,5.00
2023-05-01T09:07:09.160Z,6.80
2023-05-01T09:09:59.314Z,3.70
2023-05-01T09:12:54.343Z,4.20
2023-05-01T09:15:33.509Z,6.10
2023-05-01T09:18:23.608Z,6.30
2023-05-01T09:21:12.636Z,6.40
2023-05-01T09:24:02.967Z,6.80
2023-05-01T09:26:53.884Z,4.60
2023-05-01T09:29:45.009Z,4.20
2023-05-01T09:32:27.656Z,5.50
2023-05-01T09:35:17.698Z,7.00
2023-05-01T09:38:07.392Z,6.20
2023-05-01T09:41:04.922Z,6.00
2023-05-01T09:43:55.978Z,8.30
2023-05-01T09:46:45.593Z,10.20
2023-05-01T09:49:54.108Z,4.10
2023-05-01T09:52:52.080Z,5.00
2023-05-01T09:55:41.380Z,7.10
2023-05-01T09:58:31.751Z,5.30
2023-05-01T10:01:40.116Z,4.80
2023-05-01T10:04:33.334Z,4.50
2023-05-01T10:07:22.850Z,6.20
2023-05-01T10:10:19.514Z,9.30
2023-05-01T10:13:15.053Z,3.50
2023-05-01T10:16:06.942Z,8.50
2023-05-01T10:18:59.497Z,4.20
2023-05-01T10:21:48.973Z,8.20
2023-05-01T10:24:39.625Z,3.70
2023-05-01T10:27:30.211Z,6.70
2023-05-01T10:30:21.959Z,3.50
2023-05-01T10:33:13.873Z,3.90
2023-05-01T10:36:06.291Z,3.20
2023-05-01T10:38:48.995Z,4.10
2023-05-01T10:42:06.072Z,4.90
2023-05-01T10:45:29.741Z,4.00
2023-05-01T10:48:56.627Z,5.00
2023-05-01T10:52:03.490Z,3.90
2023-05-01T10:54:54.797Z,4.10
2023-05-01T10:57:45.631Z,4.50
2023-05-01T11:00:34.982Z,4.00
2023-05-01T11:03:39.613Z,6.60
2023-05-01T11:06:30.657Z,3.50
2023-05-01T11:09:40.447Z,3.70
2023-05-01T11:12:51.629Z,4.90
2023-05-01T11:15:41.432Z,2.60
2023-05-01T11:18:48.730Z,4.70
2023-05-01T11:21:41.326Z,6.00
2023-05-01T11:24:33.622Z,4.00
2023-05-01T11:27:24.233Z,5.70
2023-05-01T11:30:14.286Z,5.30
2023-05-01T11:33:05.519Z,3.80
2023-05-01T11:36:04.455Z,4.00
2023-05-01T11:38:56.346Z,3.20
2023-05-01T11:41:46.749Z,4.10
2023-05-01T11:44:37.241Z,2.50
2023-05-01T11:47:31.758Z,4.30
2023-05-01T11:50:21.459Z,3.70
2023-05-01T11:53:15.126Z,3.50
2023-05-01T11:56:26.043Z,4.10
2023-05-01T11:59:17.396Z,2.80
2023-05-01T12:02:19.475Z,4.40
2023-05-01T12:05:17.664Z,4.10
2023-05-01T12:08:18.277Z,4.00
2023-05-01T12:11:00.826Z,3.90
2023-05-01T12:13:51.173Z,4.40
2023-05-01T12:16:41.814Z,3.50
2023-05-01T12:19:31.734Z,2.60
2023-05-01T12:22:21.906Z,6.00
2023-05-01T12:25:12.339Z,4.30
2023-05-01T12:28:05.184Z,6.30
2023-05-01T12:31:05.398Z,4.80
2023-05-01T12:33:56.882Z,3.20
2023-05-01T12:36:53.967Z,5.30
2023-05-01T12:39:45.153Z,3.90
2023-05-01T12:42:34.136Z,4.40
2023-05-01T12:45:23.228Z,3.40
2023-05-01T12:48:14.377Z,3.20
2023-05-01T12:51:03.723Z,4.60
2023-05-01T12:53:57.125Z,5.70
2023-05-01T12:56:46.533Z,3.90
2023-05-01T12:59:37.318Z,3.10
2023-05-01T13:02:31.724Z,3.90
2023-05-01T13:05:20.883Z,3.60
2023-05-01T13:08:10.840Z,5.50
2023-05-01T13:11:03.386Z,4.60
2023-05-01T13:13:52.437Z,4.70
2023-05-01T13:16:46.421Z,3.50
2023-05-01T13:19:36.280Z,3.50
2023-05-01T13:22:33.815Z,4.00
2023-05-01T13:25:23.028Z,3.00
2023-05-01T13:28:20.586Z,6.40
2023-05-01T13:31:13.755Z,5.00
2023-05-01T13:34:05.292Z,5.90
2023-05-01T13:36:56.226Z,4.20
2023-05-01T13:39:46.554Z,3.70
2023-05-01T13:42:22.639Z,2.90
2023-05-01T13:45:13.142Z,4.70
2023-05-01T13:48:04.702Z,3.50
2023-05-01T13:50:55.026Z,4.70
2023-05-01T13:53:44.006Z,3.70
2023-05-01T13:56:35.448Z,5.30
2023-05-01T13:59:43.522Z,3.10
2023-05-01T14:02:32.789Z,3.20
2023-05-01T14:05:27.674Z,2.80
2023-05-01T14:08:20.593Z,4.10
2023-05-01T14:11:09.596Z,3.40
2023-05-01T14:14:03.633Z,2.70
2023-05-01T14:16:52.606Z,4.70
2023-05-01T14:19:41.884Z,3.30
2023-05-01T14:22:34.680Z,5.50
2023-05-01T14:25:24.600Z,3.40
2023-05-01T14:28:14.959Z,1.70
2023-05-01T14:31:04.416Z,3.70
2023-05-01T14:33:57.509Z,3.60
2023-05-01T14:36:46.778Z,3.10
2023-05-01T14:39:37.633Z,2.80
2023-05-01T14:42:29.623Z,4.20
2023-05-01T14:45:18.959Z,3.50
2023-05-01T14:48:10.439Z,4.20
2023-05-01T14:51:00.035Z,2.10
2023-05-01T14:53:51.280Z,4.10
2023-05-01T14:56:42.098Z,3.80
2023-05-01T14:59:31.392Z,3.40
2023-05-01T15:02:20.866Z,2.70
2023-05-01T15:05:10.586Z,3.10
2023-05-01T15:08:00.271Z,3.70
2023-05-01T15:10:49.486Z,2.80
2023-05-01T15:13:40.906Z,3.10
2023-05-01T15:16:33.931Z,3.40
2023-05-01T15:19:23.088Z,2.90
2023-05-01T15:22:12.567Z,3.00
2023-05-01T15:25:01.830Z,2.60
2023-05-01T15:27:51.656Z,4.90
2023-05-01T15:30:45.788Z,3.90
2023-05-01T15:33:35.124Z,3.30
2023-05-01T15:36:24.320Z,3.10
2023-05-01T15:39:15.492Z,3.50
2023-05-01T15:42:04.731Z,4.20
2023-05-01T15:44:55.111Z,4.40
2023-05-01T15:47:44.926Z,5.10
2023-05-01T15:50:34.180Z,4.30
2023-05-01T15:53:23.842Z,3.60
2023-05-01T15:56:13.176Z,5.40
2023-05-01T15:59:03.931Z,3.20
2023-05-01T16:01:55.810Z,4.20
2023-05-01T16:04:47.668Z,6.50
2023-05-01T16:07:35.868Z,3.60
2023-05-01T16:10:19.744Z,5.50
2023-05-01T16:13:09.892Z,3.50
2023-05-01T16:15:59.422Z,3.20
2023-05-01T16:18:54.818Z,7.10
2023-05-01T16:21:43.814Z,3.20
2023-05-01T16:24:33.881Z,4.70
2023-05-01T16:27:22.979Z,3.50
2023-05-01T16:30:14.949Z,2.10
2023-05-01T16:33:05.477Z,3.30
2023-05-01T16:35:59.712Z,3.20
2023-05-01T16:38:48.777Z,5.10
2023-05-01T16:41:45.070Z,2.90
2023-05-01T16:44:36.378Z,1.90
2023-05-01T16:47:15.973Z,3.70
2023-05-01T16:50:00.844Z,3.50
2023-05-01T16:52:51.988Z,3.20
2023-05-01T16:55:42.895Z,2.20
2023-05-01T16:58:32.376Z,3.00
2023-05-01T17:01:21.995Z,4.00
2023-05-01T17:04:14.410Z,2.50
2023-05-01T17:07:03.461Z,3.80
2023-05-01T17:09:52.977Z,5.10
2023-05-01T17:12:42.167Z,4.80
2023-05-01T17:15:25.023Z,3.60
2023-05-01T17:18:12.964Z,7.30
2023-05-01T17:21:02.705Z,5.70
2023-05-01T17:23:54.185Z,6.40
2023-05-01T17:26:43.663Z,5.20
2023-05-01T17:29:33.038Z,5.90
2023-05-01T17:32:25.822Z,2.90
2023-05-01T17:35:22.822Z,5.40
2023-05-01T17:38:12.094Z,4.80
2023-05-01T17:41:01.316Z,7.20
2023-05-01T17:43:50.614Z,5.20
2023-05-01T17:46:40.560Z,6.00
2023-05-01T17:49:30.382Z,6.90
2023-05-01T17:52:19.640Z,3.20
2023-05-01T17:55:11.359Z,7.00
2023-05-01T17:57:55.218Z,3.20
2023-05-01T18:00:44.112Z,4.20
2023-05-01T18:03:33.820Z,3.50
2023-05-01T18:06:23.900Z,10.90
2023-05-01T18:09:13.351Z,5.40
2023-05-01T18:12:03.508Z,5.10
2023-05-01T18:14:53.490Z,5.10
2023-05-01T18:17:42.638Z,7.10
2023-05-01T18:20:31.774Z,6.10
2023-05-01T18:23:21.253Z,5.90
2023-05-01T18:26:10.588Z,5.20
2023-05-01T18:29:00.260Z,4.10
2023-05-01T18:31:50.630Z,5.40
2023-05-01T18:34:42.207Z,4.70
2023-05-01T18:37:31.477Z,6.20
2023-05-01T18:40:21.115Z,6.40
2023-05-01T18:43:11.723Z,13.80
2023-05-01T18:46:01.242Z,5.60
2023-05-01T18:48:50.944Z,5.10
2023-05-01T18:51:41.316Z,4.40
2023-05-01T18:54:31.196Z,4.80
2023-05-01T18:57:22.303Z,4.50
2023-05-01T19:00:15.566Z,5.40
2023-05-01T19:03:05.206Z,5.10
2023-05-01T19:05:57.337Z,5.80
2023-05-01T19:08:47.222Z,9.30
2023-05-01T19:11:37.160Z,19.10
2023-05-01T19:14:26.682Z,14.00
2023-05-01T19:17:16.293Z,8.30
2023-05-01T19:20:08.146Z,10.40
2023-05-01T19:22:57.905Z,6.20
2023-05-01T19:25:47.681Z,8.70
2023-05-01T19:28:38.538Z,11.10
2023-05-01T19:31:28.321Z,9.50
2023-05-01T19:34:18.480Z,11.30
2023-05-01T19:37:08.078Z,7.60
2023-05-01T19:40:01.658Z,10.30
2023-05-01T19:42:52.157Z,9.40
2023-05-01T19:45:35.761Z,8.90
2023-05-01T19:48:25.334Z,11.90
2023-05-01T19:51:14.814Z,11.20
2023-05-01T19:54:05.067Z,12.10
2023-05-01T19:56:55.490Z,14.70
2023-05-01T19:59:46.093Z,9.90
2023-05-01T20:02:35.429Z,10.20
2023-05-01T20:05:27.720Z,9.50
2023-05-01T20:08:16.251Z,9.80
2023-05-01T20:11:07.028Z,9.70
2023-05-01T20:13:59.105Z,7.80
2023-05-01T20:16:42.461Z,7.60
2023-05-01T20:19:31.811Z,12.10
2023-05-01T20:22:21.599Z,8.90
2023-05-01T20:25:11.736Z,8.40
2023-05-01T20:28:02.856Z,9.10
2023-05-01T20:30:56.562Z,10.90
2023-05-01T20:33:46.832Z,10.00
2023-05-01T20:36:37.224Z,11.70
2023-05-01T20:39:38.099Z,11.00
2023-05-01T20:42:20.869Z,12.30
2023-05-01T20:45:11.214Z,9.10
2023-05-01T20:48:01.848Z,9.80
2023-05-01T20:50:54.166Z,9.20
2023-05-01T20:53:43.277Z,10.20
2023-05-01T20:56:34.031Z,8.00
2023-05-01T21:02:11.692Z,5.30
2023-05-01T21:05:01.618Z,8.20
2023-05-01T21:07:53.544Z,8.90
2023-05-01T21:10:32.563Z,7.30
2023-05-01T21:13:24.314Z,7.20
2023-05-01T21:16:16.434Z,10.60
2023-05-01T21:19:06.441Z,14.80
2023-05-01T21:21:56.392Z,11.60
2023-05-01T21:27:41.166Z,13.40
2023-05-01T21:30:33.020Z,9.70
2023-05-01T21:33:33.669Z,9.70
2023-05-01T21:36:23.514Z,9.90
2023-05-01T21:39:13.205Z,12.60
2023-05-01T21:42:04.720Z,7.60
2023-05-01T21:44:55.007Z,11.40
2023-05-01T21:47:47.032Z,10.70
2023-05-01T21:50:38.135Z,23.20
2023-05-01T21:53:29.474Z,8.10
2023-05-01T21:56:22.317Z,8.60
2023-05-01T21:59:13.006Z,7.30
2023-05-01T22:02:09.670Z,8.30
2023-05-01T22:04:58.942Z,8.30
2023-05-01T22:07:48.706Z,9.10
2023-05-01T22:10:40.250Z,7.10
2023-05-01T22:13:32.922Z,8.90
2023-05-01T22:16:15.423Z,8.60
2023-05-01T22:19:05.935Z,6.90
2023-05-01T22:21:56.381Z,7.00
2023-05-01T22:24:45.593Z,9.60
2023-05-01T22:27:38.255Z,6.10
2023-05-01T22:30:29.073Z,9.50
2023-05-01T22:33:18.665Z,7.50
2023-05-01T22:36:08.074Z,7.30
2023-05-01T22:38:58.374Z,7.70
2023-05-01T22:41:48.363Z,9.40
2023-05-01T22:44:37.544Z,6.00
2023-05-01T22:47:36.893Z,7.60
2023-05-01T22:50:28.691Z,6.40
2023-05-01T22:53:17.764Z,10.30
2023-05-01T22:56:10.956Z,10.00
2023-05-01T22:59:00.279Z,7.20
2023-05-01T23:01:49.656Z,7.70
2023-05-01T23:04:39.272Z,6.00
2023-05-01T23:07:31.371Z,8.90
2023-05-01T23:10:24.017Z,7.00
2023-05-01T23:13:18.878Z,10.30
2023-05-01T23:16:08.489Z,9.20
2023-05-01T23:18:58.338Z,6.40
2023-05-01T23:21:51.014Z,7.30
2023-05-01T23:24:43.556Z,6.20
2023-05-01T23:27:14.152Z,6.50
2023-05-01T23:30:07.240Z,7.70
2023-05-01T23:32:58.676Z,6.80
2023-05-01T23:35:48.658Z,6.30
2023-05-01T23:38:38.034Z,8.90
2023-05-01T23:41:30.314Z,13.60
2023-05-01T23:44:12.071Z,8.50
2023-05-01T23:47:01.236Z,5.70
2023-05-01T23:49:50.820Z,6.30
2023-05-01T23:52:40.647Z,7.80
2023-05-01T23:55:31.180Z,6.90
2023-05-01T23:58:20.923Z,6.10
